Time;durP1;ratioP1;P1;durP2;ratioP2;P2;SDS_P1;SDS_P2;PMS_P1;PMS_P2;Temp;Humidity;BMP_temperature;BMP_pressure;BME280_temperature;BME280_humidity;BME280_pressure;Samples;Min_cycle;Max_cycle;Signal;HPM_P1;HPM_P2
2022/12/19 00:00:35;;;;;;;16.93;9.30;;;-3.80;99.90;;;;;;5090678;28;20234;-71
2022/12/19 00:03:04;;;;;;;13.77;8.80;;;-3.80;99.90;;;;;;5090431;28;20207;-71
2022/12/19 00:05:31;;;;;;;15.50;9.20;;;-3.80;99.90;;;;;;5090680;28;20293;-71
2022/12/19 00:07:58;;;;;;;15.33;8.73;;;-3.80;99.90;;;;;;5090260;28;20207;-71
2022/12/19 00:10:25;;;;;;;13.03;8.47;;;-3.80;99.90;;;;;;5090021;28;20242;-71
2022/12/19 00:12:51;;;;;;;13.43;8.37;;;-3.80;99.90;;;;;;5090210;28;20199;-71
2022/12/19 00:15:18;;;;;;;15.00;9.13;;;-3.80;99.90;;;;;;5090248;28;20246;-71
2022/12/19 00:17:45;;;;;;;13.63;9.10;;;-3.70;99.90;;;;;;5090449;28;20297;-71
2022/12/19 00:20:13;;;;;;;16.13;8.77;;;-3.70;99.90;;;;;;5089866;28;20265;-71
2022/12/19 00:22:40;;;;;;;14.37;9.03;;;-3.70;99.90;;;;;;5090324;28;20294;-71
2022/12/19 00:25:08;;;;;;;13.30;7.93;;;-3.70;99.90;;;;;;5089932;28;20302;-71
2022/12/19 00:27:35;;;;;;;12.53;8.17;;;-3.70;99.90;;;;;;5090223;28;20296;-71
2022/12/19 00:30:02;;;;;;;13.67;8.20;;;-3.70;99.90;;;;;;5090054;28;20238;-71
2022/12/19 00:32:29;;;;;;;13.97;8.20;;;-3.70;99.90;;;;;;5069693;28;20209;-71
2022/12/19 00:34:55;;;;;;;13.80;9.23;;;-3.70;99.90;;;;;;5069850;28;20288;-71
2022/12/19 00:37:24;;;;;;;14.00;8.47;;;-3.70;99.90;;;;;;5069719;28;20208;-71
2022/12/19 00:39:50;;;;;;;12.67;8.07;;;-3.70;99.90;;;;;;5085634;28;20215;-71
2022/12/19 00:42:17;;;;;;;12.20;8.33;;;-3.70;99.90;;;;;;5089753;28;20238;-71
2022/12/19 00:44:44;;;;;;;11.77;8.30;;;-3.60;99.90;;;;;;5089993;28;20290;-71
2022/12/19 00:47:11;;;;;;;13.13;8.53;;;-3.60;99.90;;;;;;5085501;28;20227;-71
2022/12/19 00:49:38;;;;;;;13.07;8.60;;;-3.60;99.90;;;;;;5076111;28;20669;-71
2022/12/19 00:52:05;;;;;;;11.87;8.13;;;-3.60;99.90;;;;;;5089304;28;20243;-71
2022/12/19 00:54:33;;;;;;;10.77;8.57;;;-3.60;99.90;;;;;;5088993;28;20653;-71
2022/12/19 00:57:00;;;;;;;13.50;8.80;;;-3.60;99.90;;;;;;5089710;28;20286;-71
2022/12/19 00:59:27;;;;;;;11.00;7.83;;;-3.60;99.90;;;;;;5089368;28;20238;-71
2022/12/19 01:01:54;;;;;;;12.63;7.30;;;-3.60;99.90;;;;;;5089448;28;20215;-71
2022/12/19 01:04:21;;;;;;;12.17;8.10;;;-3.60;99.90;;;;;;5088922;28;20217;-71
2022/12/19 01:06:48;;;;;;;13.20;7.90;;;-3.60;99.90;;;;;;5089020;28;20760;-71
2022/12/19 01:09:15;;;;;;;11.60;7.70;;;-3.60;99.90;;;;;;5088754;28;20230;-70
2022/12/19 01:14:28;;;;;;;11.13;8.03;;;-3.50;99.90;;;;;;5089043;28;20199;-71
2022/12/19 01:16:55;;;;;;;12.40;7.67;;;-3.50;99.90;;;;;;5088762;28;20301;-71
2022/12/19 01:19:22;;;;;;;10.47;7.60;;;-3.50;99.90;;;;;;5088765;28;20297;-71
2022/12/19 01:21:49;;;;;;;10.47;7.83;;;-3.50;99.90;;;;;;5089092;28;20214;-71
2022/12/19 01:24:15;;;;;;;8.57;6.37;;;-3.50;99.90;;;;;;5088375;28;20755;-71
2022/12/19 01:26:44;;;;;;;10.60;7.20;;;-3.40;99.90;;;;;;5088762;28;20294;-71
2022/12/19 01:29:11;;;;;;;10.53;7.80;;;-3.40;99.90;;;;;;5088555;28;20785;-71
2022/12/19 01:31:37;;;;;;;12.07;7.63;;;-3.40;99.90;;;;;;5088690;28;20290;-71
2022/12/19 01:34:04;;;;;;;11.47;8.27;;;-3.40;99.90;;;;;;5088339;28;20735;-71
2022/12/19 01:36:31;;;;;;;10.13;7.30;;;-3.40;99.90;;;;;;5088480;28;20708;-71
2022/12/19 01:38:58;;;;;;;9.97;7.40;;;-3.40;99.90;;;;;;5088403;28;20286;-71
2022/12/19 01:41:25;;;;;;;10.70;7.40;;;-3.30;99.90;;;;;;5088538;28;20214;-71
2022/12/19 01:43:59;;;;;;;9.37;6.77;;;-3.30;99.90;;;;;;5088424;28;20216;-71
2022/12/19 01:46:30;;;;;;;13.03;7.33;;;-3.30;99.90;;;;;;5088227;28;20192;-71
2022/12/19 01:48:57;;;;;;;11.97;7.23;;;-3.30;99.90;;;;;;5069395;28;20330;-71
2022/12/19 01:51:27;;;;;;;11.37;7.47;;;-3.30;99.90;;;;;;5082454;28;20298;-71
2022/12/19 01:53:58;;;;;;;8.90;6.90;;;-3.30;99.90;;;;;;5088429;28;20647;-71
2022/12/19 01:56:30;;;;;;;12.07;7.50;;;-3.30;99.90;;;;;;5088366;28;20261;-71
2022/12/19 01:59:01;;;;;;;12.00;7.67;;;-3.30;99.90;;;;;;5088699;28;20311;-71
2022/12/19 02:01:28;;;;;;;10.00;7.53;;;-3.30;99.90;;;;;;5087567;28;20281;-71
2022/12/19 02:03:56;;;;;;;10.40;7.40;;;-3.30;99.90;;;;;;5088377;28;20240;-71
2022/12/19 02:06:25;;;;;;;11.63;7.50;;;-3.30;99.90;;;;;;5088143;28;20736;-71
2022/12/19 02:08:55;;;;;;;10.63;7.10;;;-3.30;99.90;;;;;;5088212;28;20304;-71
2022/12/19 02:11:22;;;;;;;11.40;7.13;;;-3.30;99.90;;;;;;5087767;28;20223;-71
2022/12/19 02:13:49;;;;;;;9.00;7.00;;;-3.20;99.90;;;;;;5088114;28;20230;-71
2022/12/19 02:16:26;;;;;;;9.97;6.87;;;-3.20;99.90;;;;;;5088228;28;20856;-71
2022/12/19 02:19:04;;;;;;;11.03;7.30;;;-3.30;99.90;;;;;;5088390;28;20198;-72
2022/12/19 02:21:44;;;;;;;9.47;7.20;;;-3.30;99.90;;;;;;5088397;28;20608;-71
2022/12/19 02:24:43;;;;;;;10.80;7.77;;;-3.20;99.90;;;;;;5074908;28;20290;-71
2022/12/19 02:28:07;;;;;;;10.23;7.57;;;-3.30;99.90;;;;;;5067763;28;20288;-71
2022/12/19 02:30:53;;;;;;;9.10;6.67;;;-3.30;99.90;;;;;;4960243;28;20341;-71
2022/12/19 02:33:31;;;;;;;10.17;7.17;;;-3.30;99.90;;;;;;5067702;28;20193;-71
2022/12/19 02:36:06;;;;;;;10.57;7.23;;;-3.30;99.90;;;;;;5086379;28;20295;-71
2022/12/19 02:38:39;;;;;;;11.20;7.60;;;-3.30;99.90;;;;;;5087868;28;20308;-71
2022/12/19 02:41:10;;;;;;;10.83;7.53;;;-3.30;99.90;;;;;;5087557;28;20290;-71
2022/12/19 02:43:42;;;;;;;13.07;7.67;;;-3.30;99.90;;;;;;5087440;28;20249;-71
2022/12/19 02:46:12;;;;;;;12.10;8.10;;;-3.30;99.90;;;;;;5087459;28;20240;-71
2022/12/19 02:48:40;;;;;;;11.10;7.33;;;-3.30;99.90;;;;;;5071112;28;20267;-71
2022/12/19 02:51:06;;;;;;;12.33;7.93;;;-3.30;99.90;;;;;;5078918;28;20731;-71
2022/12/19 02:53:35;;;;;;;11.13;7.23;;;-3.30;99.90;;;;;;5087200;28;20298;-71
2022/12/19 02:56:22;;;;;;;11.50;7.60;;;-3.30;99.90;;;;;;5086992;28;21059;-71
2022/12/19 02:58:55;;;;;;;12.10;8.03;;;-3.30;99.90;;;;;;5087727;28;20316;-71
2022/12/19 03:01:39;;;;;;;13.03;7.77;;;-3.30;99.90;;;;;;5087677;28;20755;-71
2022/12/19 03:04:16;;;;;;;11.67;8.00;;;-3.30;99.90;;;;;;5087491;28;20199;-71
2022/12/19 03:06:49;;;;;;;10.00;7.20;;;-3.30;99.90;;;;;;5087151;28;20200;-71
2022/12/19 03:09:22;;;;;;;13.97;8.10;;;-3.30;99.90;;;;;;5086688;28;20316;-71
2022/12/19 03:11:52;;;;;;;12.17;7.93;;;-3.30;99.90;;;;;;5088138;28;20625;-71
2022/12/19 03:14:21;;;;;;;11.90;7.67;;;-3.30;99.90;;;;;;5090970;28;20293;-71
2022/12/19 03:16:49;;;;;;;11.10;7.67;;;-3.30;99.90;;;;;;5091414;28;20245;-71
2022/12/19 03:19:16;;;;;;;10.17;7.60;;;-3.20;99.90;;;;;;5091407;28;20294;-71
2022/12/19 03:21:45;;;;;;;11.10;7.83;;;-3.30;99.90;;;;;;5091234;28;20302;-71
2022/12/19 03:24:13;;;;;;;10.90;7.83;;;-3.30;99.90;;;;;;5090698;28;20252;-71
2022/12/19 03:26:44;;;;;;;11.53;8.13;;;-3.30;99.90;;;;;;5091079;28;20234;-71
2022/12/19 03:29:15;;;;;;;12.13;7.87;;;-3.30;99.90;;;;;;5090995;28;21209;-71
2022/12/19 03:31:44;;;;;;;13.03;8.70;;;-3.30;99.90;;;;;;5091401;28;20287;-71
2022/12/19 03:34:18;;;;;;;12.63;8.33;;;-3.30;99.90;;;;;;5090994;28;20294;-71
2022/12/19 03:36:47;;;;;;;12.83;8.80;;;-3.30;99.90;;;;;;5090892;28;20203;-71
2022/12/19 03:39:17;;;;;;;12.40;8.50;;;-3.30;99.90;;;;;;5076118;28;20207;-71
2022/12/19 03:44:35;;;;;;;12.33;7.80;;;-3.30;99.90;;;;;;5090922;28;20201;-71
2022/12/19 03:47:08;;;;;;;13.00;8.90;;;-3.30;99.90;;;;;;5087876;28;20203;-71
2022/12/19 03:49:36;;;;;;;14.20;8.53;;;-3.30;99.90;;;;;;5070566;28;20220;-71
2022/12/19 03:52:13;;;;;;;13.73;8.33;;;-3.30;99.90;;;;;;5090558;28;20294;-71
2022/12/19 03:54:44;;;;;;;12.50;8.27;;;-3.30;99.90;;;;;;5090762;28;20286;-72
2022/12/19 03:57:16;;;;;;;12.97;8.77;;;-3.30;99.90;;;;;;5090439;28;20292;-71
2022/12/19 03:59:50;;;;;;;13.77;8.80;;;-3.30;99.90;;;;;;5091005;28;20318;-71
2022/12/19 04:02:19;;;;;;;15.83;9.33;;;-3.30;99.90;;;;;;5090541;28;20299;-71
2022/12/19 04:04:54;;;;;;;11.67;8.17;;;-3.30;99.90;;;;;;5090890;28;20345;-71
2022/12/19 04:07:22;;;;;;;13.83;8.50;;;-3.30;99.90;;;;;;5090817;28;20285;-71
2022/12/19 04:09:50;;;;;;;14.80;9.37;;;-3.30;99.90;;;;;;5090109;28;20332;-71
2022/12/19 04:12:20;;;;;;;14.13;8.57;;;-3.30;99.90;;;;;;5090288;28;20207;-71
2022/12/19 04:14:49;;;;;;;13.90;8.63;;;-3.30;99.90;;;;;;5090234;28;20323;-71
2022/12/19 04:17:24;;;;;;;12.47;8.57;;;-3.30;99.90;;;;;;5071830;28;20218;-71
2022/12/19 04:19:59;;;;;;;14.63;8.47;;;-3.40;99.90;;;;;;5070056;28;20730;-71
2022/12/19 04:22:32;;;;;;;16.07;9.13;;;-3.30;99.90;;;;;;5070097;28;20283;-71
2022/12/19 04:25:00;;;;;;;14.10;8.60;;;-3.30;99.90;;;;;;5070654;28;20575;-71
2022/12/19 04:27:28;;;;;;;11.40;8.40;;;-3.30;99.90;;;;;;5069970;28;20303;-71
2022/12/19 04:29:57;;;;;;;13.03;9.10;;;-3.30;99.90;;;;;;5069580;28;20328;-71
2022/12/19 04:32:25;;;;;;;12.20;8.73;;;-3.30;99.90;;;;;;5089411;28;20290;-71
2022/12/19 04:34:53;;;;;;;12.77;9.33;;;-3.30;99.90;;;;;;5089844;28;20824;-71
2022/12/19 04:37:20;;;;;;;12.60;9.07;;;-3.30;99.90;;;;;;5089960;28;20208;-71
2022/12/19 04:39:47;;;;;;;13.57;9.10;;;-3.30;99.90;;;;;;5069408;28;20295;-71
2022/12/19 04:42:14;;;;;;;13.43;9.13;;;-3.20;99.90;;;;;;5069313;28;20202;-71
2022/12/19 04:44:41;;;;;;;13.03;9.03;;;-3.30;99.90;;;;;;5069429;28;20304;-71
2022/12/19 04:47:08;;;;;;;13.13;9.23;;;-3.30;99.90;;;;;;5072491;28;20314;-71
2022/12/19 04:49:34;;;;;;;14.17;8.57;;;-3.30;99.90;;;;;;5089894;28;20201;-71
2022/12/19 04:52:03;;;;;;;14.90;10.17;;;-3.30;99.90;;;;;;5089677;28;20331;-71
2022/12/19 04:54:30;;;;;;;13.93;9.70;;;-3.30;99.90;;;;;;5089607;28;20233;-71
2022/12/19 04:56:57;;;;;;;12.63;9.10;;;-3.30;99.90;;;;;;5089376;28;20199;-71
2022/12/19 04:59:24;;;;;;;15.43;9.93;;;-3.30;99.90;;;;;;5089282;28;21109;-71
2022/12/19 05:01:51;;;;;;;14.27;9.57;;;-3.30;99.90;;;;;;5089361;28;20293;-71
2022/12/19 05:04:18;;;;;;;17.40;9.93;;;-3.30;99.90;;;;;;5089229;28;20674;-71
2022/12/19 05:06:44;;;;;;;12.47;9.47;;;-3.30;99.90;;;;;;5089355;28;20202;-71
2022/12/19 05:09:13;;;;;;;12.20;9.13;;;-3.30;99.90;;;;;;5088827;28;20209;-71
2022/12/19 05:11:40;;;;;;;13.53;8.90;;;-3.30;99.90;;;;;;5086603;28;20235;-71
2022/12/19 05:14:06;;;;;;;13.97;9.70;;;-3.30;99.90;;;;;;5069078;28;20299;-71
2022/12/19 05:16:33;;;;;;;13.83;9.70;;;-3.30;99.90;;;;;;5068803;28;20286;-71
2022/12/19 05:19:00;;;;;;;14.70;9.23;;;-3.30;99.90;;;;;;5068917;28;20247;-71
2022/12/19 05:21:27;;;;;;;15.60;10.13;;;-3.30;99.90;;;;;;5083470;28;20223;-71
2022/12/19 05:23:55;;;;;;;13.47;9.30;;;-3.30;99.90;;;;;;5088930;28;20314;-71
2022/12/19 05:26:23;;;;;;;13.73;8.73;;;-3.30;99.90;;;;;;5088596;28;20241;-71
2022/12/19 05:28:50;;;;;;;14.30;9.27;;;-3.30;99.90;;;;;;5088975;28;20287;-71
2022/12/19 05:31:18;;;;;;;13.87;9.17;;;-3.30;99.90;;;;;;5088364;28;20772;-71
2022/12/19 05:33:46;;;;;;;14.73;9.43;;;-3.30;99.90;;;;;;5087501;28;20207;-71
2022/12/19 05:36:14;;;;;;;14.83;9.47;;;-3.20;99.90;;;;;;5068187;28;20924;-71
2022/12/19 05:38:41;;;;;;;17.20;10.37;;;-3.20;99.90;;;;;;5068488;28;20331;-71
2022/12/19 05:41:09;;;;;;;13.73;9.30;;;-3.20;99.90;;;;;;5068118;28;20232;-71
2022/12/19 05:43:37;;;;;;;14.77;9.50;;;-3.20;99.90;;;;;;5068572;28;20213;-71
2022/12/19 05:46:05;;;;;;;12.37;9.50;;;-3.20;99.90;;;;;;5068283;28;20204;-71
2022/12/19 05:48:31;;;;;;;15.93;10.07;;;-3.20;99.90;;;;;;5067971;28;20322;-71
2022/12/19 05:50:58;;;;;;;14.50;9.57;;;-3.10;99.90;;;;;;5078938;28;20243;-71
2022/12/19 05:53:26;;;;;;;15.20;9.87;;;-3.10;99.90;;;;;;5088250;28;20307;-71
2022/12/19 05:56:02;;;;;;;15.10;10.03;;;-3.10;99.90;;;;;;5088329;28;20228;-71
2022/12/19 05:58:28;;;;;;;13.80;9.13;;;-3.00;99.90;;;;;;5088596;28;20223;-71
2022/12/19 06:01:02;;;;;;;14.97;9.47;;;-3.10;99.90;;;;;;5088556;28;20210;-71
2022/12/19 06:03:28;;;;;;;14.33;9.83;;;-3.10;99.90;;;;;;5088428;28;20207;-71
2022/12/19 06:05:55;;;;;;;13.40;9.50;;;-3.10;99.90;;;;;;5088180;28;20739;-71
2022/12/19 06:08:22;;;;;;;13.47;9.53;;;-3.00;99.90;;;;;;5081861;28;20299;-70
2022/12/19 06:10:49;;;;;;;14.20;9.87;;;-3.00;99.90;;;;;;5067417;28;20238;-71
2022/12/19 06:13:16;;;;;;;13.93;9.57;;;-3.00;99.90;;;;;;5067723;28;20717;-71
2022/12/19 06:15:43;;;;;;;13.97;9.70;;;-3.00;99.90;;;;;;5070360;28;20214;-71
2022/12/19 06:18:11;;;;;;;13.47;9.23;;;-3.00;99.90;;;;;;5088161;28;20570;-71
2022/12/19 06:20:38;;;;;;;14.77;9.87;;;-3.00;99.90;;;;;;5087901;28;20209;-71
2022/12/19 06:23:05;;;;;;;13.30;9.63;;;-3.00;99.90;;;;;;5087664;28;20724;-71
2022/12/19 06:25:32;;;;;;;16.13;9.60;;;-2.90;99.90;;;;;;5087895;28;20215;-71
2022/12/19 06:27:59;;;;;;;12.90;9.00;;;-2.90;99.90;;;;;;5088027;28;20560;-71
2022/12/19 06:30:26;;;;;;;15.03;10.17;;;-2.90;99.90;;;;;;5087830;28;20319;-71
2022/12/19 06:32:52;;;;;;;12.77;9.23;;;-2.90;99.90;;;;;;5088093;28;20292;-71
2022/12/19 06:35:21;;;;;;;14.03;9.33;;;-2.90;99.90;;;;;;5087906;28;20691;-71
2022/12/19 06:37:49;;;;;;;12.23;9.03;;;-2.80;99.90;;;;;;5087892;28;20293;-71
2022/12/19 06:42:21;;;;;;;15.73;10.00;;;-2.80;99.90;;;;;;5087425;28;20221;-71
2022/12/19 06:43:02;;;;;;;15.10;9.27;;;-2.80;99.90;;;;;;5087479;28;20228;-71
2022/12/19 06:45:30;;;;;;;13.57;9.03;;;-2.80;99.90;;;;;;5087652;28;20291;-71
2022/12/19 06:47:57;;;;;;;12.13;8.87;;;-2.80;99.90;;;;;;5086948;28;20332;-71
2022/12/19 06:50:26;;;;;;;16.60;9.87;;;-2.80;99.90;;;;;;5087180;28;20231;-71
2022/12/19 06:52:53;;;;;;;14.60;9.23;;;-2.70;99.90;;;;;;5087385;28;20601;-71
2022/12/19 06:55:19;;;;;;;13.73;9.40;;;-2.70;99.90;;;;;;5087061;28;20214;-71
2022/12/19 06:57:46;;;;;;;13.53;9.10;;;-2.70;99.90;;;;;;5087437;28;20313;-71
2022/12/19 07:00:14;;;;;;;13.33;9.80;;;-2.60;99.90;;;;;;5087208;28;20750;-71
2022/12/19 07:02:45;;;;;;;13.37;9.23;;;-2.60;99.90;;;;;;5087373;28;20301;-71
2022/12/19 07:05:13;;;;;;;13.23;9.53;;;-2.60;99.90;;;;;;5075871;28;20617;-71
2022/12/19 07:07:41;;;;;;;13.03;9.80;;;-2.60;99.90;;;;;;5067132;28;20205;-71
2022/12/19 07:10:09;;;;;;;13.07;9.23;;;-2.60;99.90;;;;;;5066626;28;20852;-71
2022/12/19 07:12:36;;;;;;;14.73;9.33;;;-2.60;99.90;;;;;;5075180;28;20296;-71
2022/12/19 07:15:03;;;;;;;12.97;9.43;;;-2.60;99.90;;;;;;5087325;28;20769;-71
2022/12/19 07:17:30;;;;;;;13.67;9.50;;;-2.60;99.90;;;;;;5087272;28;20209;-71
2022/12/19 07:19:58;;;;;;;12.43;9.20;;;-2.60;99.90;;;;;;5087473;28;20305;-71
2022/12/19 07:22:29;;;;;;;13.10;8.63;;;-2.60;99.90;;;;;;5087102;28;20220;-71
2022/12/19 07:24:59;;;;;;;14.17;9.60;;;-2.60;99.90;;;;;;5085910;28;20642;-70
2022/12/19 07:27:28;;;;;;;13.10;9.23;;;-2.50;99.90;;;;;;5086700;28;20888;-71
2022/12/19 07:29:55;;;;;;;13.50;8.87;;;-2.50;99.90;;;;;;5086913;28;20216;-71
2022/12/19 07:32:22;;;;;;;13.07;9.03;;;-2.50;99.90;;;;;;5086982;28;20332;-71
2022/12/19 07:34:49;;;;;;;14.37;9.27;;;-2.50;99.90;;;;;;5087083;28;20211;-71
2022/12/19 07:37:16;;;;;;;11.43;8.37;;;-2.50;99.90;;;;;;5086545;28;20209;-71
2022/12/19 07:39:43;;;;;;;14.60;10.10;;;-2.40;99.90;;;;;;5086414;28;20207;-71
2022/12/19 07:42:11;;;;;;;10.93;8.27;;;-2.50;99.90;;;;;;5086875;28;20210;-71
2022/12/19 07:44:38;;;;;;;13.80;9.10;;;-2.40;99.90;;;;;;5087208;28;20245;-71
2022/12/19 07:47:05;;;;;;;13.80;8.87;;;-2.40;99.90;;;;;;5086469;28;20289;-71
2022/12/19 07:49:32;;;;;;;12.37;8.93;;;-2.40;99.90;;;;;;5086893;28;20221;-71
2022/12/19 07:51:58;;;;;;;12.03;8.57;;;-2.40;99.90;;;;;;5086964;28;20329;-71
2022/12/19 07:54:25;;;;;;;12.20;9.13;;;-2.40;99.90;;;;;;5086600;28;20315;-71
2022/12/19 07:56:52;;;;;;;12.07;8.47;;;-2.40;99.90;;;;;;5086799;28;20290;-71
2022/12/19 07:59:20;;;;;;;13.20;8.67;;;-2.40;99.90;;;;;;5088245;28;20387;-71
2022/12/19 08:01:48;;;;;;;11.50;8.57;;;-2.30;99.90;;;;;;5076466;28;20242;-71
2022/12/19 08:04:15;;;;;;;13.00;8.70;;;-2.30;99.90;;;;;;5070009;28;20301;-71
2022/12/19 08:06:41;;;;;;;11.40;8.60;;;-2.30;99.90;;;;;;5070329;28;20214;-71
2022/12/19 08:09:09;;;;;;;10.90;8.23;;;-2.30;99.90;;;;;;5080225;28;20248;-71
2022/12/19 08:11:36;;;;;;;12.33;8.27;;;-2.20;99.90;;;;;;5090571;28;20333;-71
2022/12/19 08:14:03;;;;;;;11.53;7.60;;;-2.20;99.90;;;;;;5090577;28;20293;-71
2022/12/19 08:16:31;;;;;;;13.30;8.00;;;-2.20;99.90;;;;;;5090402;28;20341;-71
2022/12/19 08:18:58;;;;;;;10.73;7.70;;;-2.20;99.90;;;;;;5090000;28;20296;-71
2022/12/19 08:21:25;;;;;;;11.37;8.33;;;-2.10;99.90;;;;;;5090055;28;20241;-71
2022/12/19 08:23:52;;;;;;;11.60;8.33;;;-2.10;99.90;;;;;;5090078;28;20301;-71
2022/12/19 08:26:23;;;;;;;10.03;7.87;;;-2.00;99.90;;;;;;5090298;28;20302;-71
2022/12/19 08:28:51;;;;;;;11.63;8.03;;;-2.00;99.90;;;;;;5090129;28;20201;-71
2022/12/19 08:31:19;;;;;;;10.70;7.87;;;-2.00;99.90;;;;;;5089692;28;20229;-71
2022/12/19 08:33:47;;;;;;;12.27;8.10;;;-2.00;99.90;;;;;;5090036;28;20209;-71
2022/12/19 08:36:17;;;;;;;12.10;8.40;;;-2.00;99.90;;;;;;5089730;28;20829;-71
2022/12/19 08:38:44;;;;;;;11.43;8.27;;;-1.90;99.90;;;;;;5090241;28;20297;-71
2022/12/19 08:41:11;;;;;;;10.43;7.63;;;-1.90;99.90;;;;;;5089836;28;20333;-71
2022/12/19 08:43:38;;;;;;;12.43;7.73;;;-1.90;99.90;;;;;;5089747;28;20301;-71
2022/12/19 08:46:06;;;;;;;11.10;7.57;;;-1.90;99.90;;;;;;5089702;28;20309;-71
2022/12/19 08:48:33;;;;;;;9.33;7.47;;;-1.80;99.90;;;;;;5074160;28;20314;-71
2022/12/19 08:51:04;;;;;;;9.53;7.37;;;-1.80;99.90;;;;;;5080250;28;20333;-71
2022/12/19 08:53:33;;;;;;;10.10;7.33;;;-1.80;99.90;;;;;;5089971;28;20332;-71
2022/12/19 08:56:01;;;;;;;10.40;7.60;;;-1.80;99.90;;;;;;5089277;28;20213;-71
2022/12/19 08:58:30;;;;;;;11.97;7.73;;;-1.80;99.90;;;;;;5072073;28;20354;-71
2022/12/19 09:00:59;;;;;;;10.47;8.07;;;-1.70;99.90;;;;;;5069330;28;20293;-71
2022/12/19 09:03:26;;;;;;;11.67;8.20;;;-1.70;99.90;;;;;;5069206;28;20216;-71
2022/12/19 09:05:57;;;;;;;11.20;8.07;;;-1.80;99.90;;;;;;5069143;28;20210;-71
2022/12/19 09:08:27;;;;;;;10.57;7.50;;;-1.70;99.90;;;;;;5072746;28;20659;-71
2022/12/19 09:10:59;;;;;;;12.57;8.33;;;-1.70;99.90;;;;;;5088599;28;20194;-71
2022/12/19 09:13:26;;;;;;;11.17;7.87;;;-1.70;99.90;;;;;;5089022;28;20205;-71
2022/12/19 09:16:00;;;;;;;10.33;7.63;;;-1.70;99.90;;;;;;5089152;28;20214;-71
2022/12/19 09:18:27;;;;;;;12.37;8.23;;;-1.60;99.90;;;;;;5088831;28;20665;-71
2022/12/19 09:20:54;;;;;;;11.43;8.00;;;-1.50;99.90;;;;;;5089002;28;20233;-71
2022/12/19 09:23:21;;;;;;;12.53;7.67;;;-1.60;99.90;;;;;;5089121;28;20612;-71
2022/12/19 09:25:51;;;;;;;11.80;7.80;;;-1.50;99.90;;;;;;5088669;28;20206;-71
2022/12/19 09:28:18;;;;;;;12.27;8.60;;;-1.50;99.90;;;;;;5088671;28;20618;-71
2022/12/19 09:30:45;;;;;;;10.87;7.93;;;-1.50;99.90;;;;;;5088818;28;20307;-71
2022/12/19 09:33:12;;;;;;;11.77;7.93;;;-1.50;99.90;;;;;;5088639;28;20321;-71
2022/12/19 09:35:39;;;;;;;11.63;7.90;;;-1.40;99.90;;;;;;5088672;28;20268;-70
2022/12/19 09:38:06;;;;;;;11.40;7.60;;;-1.40;99.90;;;;;;5088473;28;20250;-71
2022/12/19 09:40:45;;;;;;;11.47;8.03;;;-1.40;99.90;;;;;;5088730;28;20266;-71
2022/12/19 09:43:26;;;;;;;10.27;7.37;;;-1.40;99.90;;;;;;5088408;28;20749;-71
2022/12/19 09:46:03;;;;;;;9.70;7.50;;;-1.30;99.90;;;;;;5088871;28;20191;-71
2022/12/19 09:48:30;;;;;;;11.80;7.73;;;-1.20;99.90;;;;;;5073494;28;20329;-71
2022/12/19 09:51:01;;;;;;;11.50;7.47;;;-1.20;99.90;;;;;;5078859;28;20297;-71
2022/12/19 09:53:34;;;;;;;10.17;7.17;;;-1.20;99.90;;;;;;5081187;28;20588;-71
2022/12/19 09:56:05;;;;;;;11.37;7.73;;;-1.10;99.90;;;;;;5068130;28;20282;-71
2022/12/19 09:58:41;;;;;;;10.97;8.03;;;-1.10;99.90;;;;;;5068352;28;20677;-71
2022/12/19 10:01:17;;;;;;;11.10;7.67;;;-1.00;99.90;;;;;;5068024;28;20199;-71
2022/12/19 10:03:53;;;;;;;11.60;7.40;;;-1.00;99.90;;;;;;5067969;28;20245;-71
2022/12/19 10:06:22;;;;;;;10.50;7.47;;;-0.90;99.90;;;;;;5067516;28;20729;-71
2022/12/19 10:08:50;;;;;;;10.73;7.60;;;-0.80;99.90;;;;;;5075553;28;20199;-71
2022/12/19 10:11:40;;;;;;;10.90;7.07;;;-0.80;99.90;;;;;;5087864;28;20297;-71
2022/12/19 10:14:23;;;;;;;10.27;7.40;;;-0.80;99.90;;;;;;5068106;28;20560;-71
2022/12/19 10:17:03;;;;;;;11.50;7.53;;;-0.70;99.90;;;;;;5067692;28;20207;-71
2022/12/19 10:19:38;;;;;;;11.80;7.83;;;-0.60;99.90;;;;;;5067637;28;20231;-71
2022/12/19 10:22:14;;;;;;;9.73;7.23;;;-0.60;99.90;;;;;;5087105;28;20202;-71
2022/12/19 10:25:00;;;;;;;10.17;7.57;;;-0.50;99.90;;;;;;5070772;28;20293;-71
2022/12/19 10:27:32;;;;;;;11.40;7.43;;;-0.50;99.90;;;;;;5067762;28;20195;-71
2022/12/19 10:30:15;;;;;;;10.43;7.47;;;-0.50;99.90;;;;;;5067533;28;21007;-71
2022/12/19 10:32:58;;;;;;;10.80;7.03;;;-0.40;99.90;;;;;;5067890;28;20219;-71
2022/12/19 10:35:32;;;;;;;9.67;7.20;;;-0.40;99.90;;;;;;5067535;28;20570;-71
2022/12/19 10:38:15;;;;;;;10.17;7.40;;;-0.40;99.90;;;;;;5067782;28;20279;-71
2022/12/19 10:40:46;;;;;;;10.53;7.17;;;-0.40;99.90;;;;;;5067602;28;20275;-71
2022/12/19 10:43:18;;;;;;;11.97;8.00;;;-0.30;99.90;;;;;;5067888;28;20263;-71
2022/12/19 10:45:50;;;;;;;11.13;7.60;;;-0.30;99.90;;;;;;5067596;28;20271;-71
2022/12/19 10:48:21;;;;;;;13.57;7.80;;;-0.20;99.90;;;;;;5067069;28;20289;-71
2022/12/19 10:50:49;;;;;;;10.83;8.10;;;-0.30;99.90;;;;;;5083301;28;20297;-71
2022/12/19 10:53:25;;;;;;;11.67;7.63;;;-0.20;99.90;;;;;;5087597;28;20230;-71
2022/12/19 10:55:53;;;;;;;12.13;8.40;;;-0.20;99.90;;;;;;5087632;28;20197;-71
2022/12/19 10:58:24;;;;;;;10.67;6.83;;;-0.20;99.90;;;;;;5087684;28;20225;-71
2022/12/19 11:01:10;;;;;;;13.37;8.10;;;-0.20;99.90;;;;;;5087770;28;20191;-71
2022/12/19 11:03:37;;;;;;;11.53;8.03;;;-0.10;99.90;;;;;;5087501;28;20282;-71
2022/12/19 11:06:05;;;;;;;11.20;8.03;;;-0.10;99.90;;;;;;5087697;28;20203;-71
2022/12/19 11:08:34;;;;;;;11.97;8.03;;;0.00;99.90;;;;;;5079270;28;20286;-71
2022/12/19 11:11:12;;;;;;;10.90;7.57;;;0.00;99.90;;;;;;5068244;28;20297;-71
2022/12/19 11:13:42;;;;;;;11.80;7.57;;;-0.10;99.90;;;;;;5067020;28;20218;-72
2022/12/19 11:16:11;;;;;;;10.97;7.97;;;0.00;99.90;;;;;;5066917;28;20283;-71
2022/12/19 11:18:40;;;;;;;11.77;8.50;;;0.00;99.90;;;;;;5067263;28;20218;-71
2022/12/19 11:21:17;;;;;;;13.80;8.23;;;0.00;99.90;;;;;;5079026;28;20297;-71
2022/12/19 11:23:51;;;;;;;12.23;8.83;;;0.00;99.90;;;;;;5087289;28;20203;-71
2022/12/19 11:26:34;;;;;;;12.63;8.33;;;0.00;99.90;;;;;;5086674;28;20286;-72
2022/12/19 11:29:05;;;;;;;14.37;8.50;;;0.10;99.90;;;;;;5087460;28;20281;-71
2022/12/19 11:31:36;;;;;;;11.40;8.27;;;0.00;99.90;;;;;;5087216;28;20218;-71
2022/12/19 11:34:05;;;;;;;11.83;8.13;;;0.10;99.90;;;;;;5090047;28;20188;-71
2022/12/19 11:36:38;;;;;;;11.53;8.10;;;0.10;99.90;;;;;;5091284;28;20302;-71
2022/12/19 11:39:12;;;;;;;10.40;8.37;;;0.10;99.90;;;;;;5090940;28;20565;-71
2022/12/19 11:41:42;;;;;;;13.47;7.83;;;0.10;99.90;;;;;;5090889;28;20256;-71
2022/12/19 11:44:19;;;;;;;12.20;8.50;;;0.10;99.90;;;;;;5086984;28;20286;-71
2022/12/19 11:46:54;;;;;;;13.80;9.20;;;0.10;99.90;;;;;;5070248;28;20656;-72
2022/12/19 11:49:29;;;;;;;12.73;8.53;;;0.10;99.90;;;;;;5070661;28;20202;-71
2022/12/19 11:52:04;;;;;;;14.97;9.17;;;0.10;99.90;;;;;;5089438;28;20202;-71
2022/12/19 11:54:36;;;;;;;11.80;8.33;;;0.10;99.90;;;;;;5090821;28;20289;-71
2022/12/19 11:57:03;;;;;;;14.83;9.43;;;0.20;99.90;;;;;;5090944;28;20278;-71
2022/12/19 11:59:34;;;;;;;15.07;8.87;;;0.10;99.90;;;;;;5091005;28;20295;-71
2022/12/19 12:02:19;;;;;;;13.10;8.77;;;0.20;99.90;;;;;;5090803;28;20609;-71
2022/12/19 12:05:00;;;;;;;13.60;8.43;;;0.10;99.90;;;;;;5082605;28;20714;-72
2022/12/19 12:07:34;;;;;;;12.93;8.63;;;0.10;99.90;;;;;;5070786;28;20741;-71
2022/12/19 12:10:10;;;;;;;15.27;9.20;;;0.10;99.90;;;;;;5090138;28;20632;-71
2022/12/19 12:12:46;;;;;;;14.10;9.33;;;0.10;99.90;;;;;;5090522;28;20351;-71
2022/12/19 12:15:38;;;;;;;14.80;9.10;;;0.10;99.90;;;;;;5090496;28;20289;-71
2022/12/19 12:18:18;;;;;;;14.43;9.60;;;0.10;99.90;;;;;;5090023;28;20599;-71
2022/12/19 12:20:54;;;;;;;12.87;8.93;;;0.20;99.90;;;;;;5090345;28;20254;-71
2022/12/19 12:23:28;;;;;;;14.83;8.93;;;0.20;99.90;;;;;;5090143;28;20230;-72
2022/12/19 12:26:02;;;;;;;13.87;9.23;;;0.20;99.90;;;;;;5090184;28;20290;-71
2022/12/19 12:28:53;;;;;;;14.17;9.47;;;0.20;99.90;;;;;;5090310;28;20282;-71
2022/12/19 12:31:45;;;;;;;13.83;8.97;;;0.20;99.90;;;;;;5090081;28;20566;-71
2022/12/19 12:34:41;;;;;;;16.53;9.83;;;0.20;99.90;;;;;;5090177;28;20225;-71
2022/12/19 12:37:17;;;;;;;13.83;9.30;;;0.10;99.90;;;;;;5089947;28;20195;-71
2022/12/19 12:39:57;;;;;;;14.67;9.40;;;0.10;99.90;;;;;;5089699;28;20285;-71
2022/12/19 12:42:40;;;;;;;13.67;9.37;;;0.20;99.90;;;;;;5069396;28;20302;-71
2022/12/19 12:45:18;;;;;;;14.50;9.47;;;0.10;99.90;;;;;;5069163;28;20302;-71
2022/12/19 12:47:49;;;;;;;14.33;9.20;;;0.20;99.90;;;;;;5069386;28;20642;-71
2022/12/19 12:50:19;;;;;;;13.93;9.63;;;0.20;99.90;;;;;;5074579;28;20635;-71
2022/12/19 12:52:48;;;;;;;13.37;9.27;;;0.20;99.90;;;;;;5090143;28;20231;-71
2022/12/19 12:55:20;;;;;;;13.17;9.43;;;0.20;99.90;;;;;;5089743;28;20290;-71
2022/12/19 12:57:47;;;;;;;15.90;10.20;;;0.20;99.90;;;;;;5089571;28;20226;-71
2022/12/19 13:00:18;;;;;;;16.47;9.87;;;0.10;99.90;;;;;;5089671;28;20226;-71